Time;durP1;ratioP1;P1;durP2;ratioP2;P2;SDS_P1;SDS_P2;PMS_P1;PMS_P2;Temp;Humidity;BMP_temperature;BMP_pressure;BME280_temperature;BME280_humidity;BME280_pressure;Samples;Min_cycle;Max_cycle;Signal;HPM_P1;HPM_P2
2023/02/08 00:00:33;;;;;;;3.05;2.95;;;;;;;-3.87;93.59;103385.72;6026489;23;20094;-70
2023/02/08 00:03:00;;;;;;;2.78;2.67;;;;;;;-3.58;94.31;103434.19;6057924;23;20054;-69
2023/02/08 00:05:26;;;;;;;4.28;3.97;;;;;;;-3.55;94.32;103431.75;6032357;23;20038;-70
2023/02/08 00:07:53;;;;;;;3.22;2.90;;;;;;;-3.56;93.83;103432.56;6030774;23;20089;-70
2023/02/08 00:10:19;;;;;;;3.25;3.15;;;;;;;-3.78;94.00;103402.38;6027823;23;20457;-70
2023/02/08 00:12:45;;;;;;;2.88;2.78;;;;;;;-3.75;93.23;103405.06;5999175;23;20418;-71
2023/02/08 00:15:12;;;;;;;2.30;2.20;;;;;;;-3.38;92.90;103443.75;6029282;23;20029;-69
2023/02/08 00:17:38;;;;;;;2.95;2.72;;;;;;;-3.60;92.36;103403.28;6054470;23;20394;-70
2023/02/08 00:20:05;;;;;;;3.08;2.97;;;;;;;-4.04;91.78;103327.53;6052979;23;20022;-71
2023/02/08 00:22:32;;;;;;;2.90;2.80;;;;;;;-3.35;92.19;103436.19;6026906;23;20034;-70
2023/02/08 00:24:58;;;;;;;2.80;2.70;;;;;;;-3.34;91.33;103425.13;6054165;23;20445;-70
2023/02/08 00:27:25;;;;;;;2.70;2.60;;;;;;;-3.96;90.61;103307.41;6024666;23;20050;-69
2023/02/08 00:29:51;;;;;;;2.58;2.47;;;;;;;-5.22;89.90;103092.69;6053720;23;20022;-70
2023/02/08 00:32:17;;;;;;;4.05;3.00;;;;;;;-4.04;89.43;103291.63;6026484;23;20329;-71
2023/02/08 00:34:44;;;;;;;4.05;2.65;;;;;;;-3.72;89.51;103330.84;6060352;23;20026;-71
2023/02/08 00:37:10;;;;;;;3.53;3.30;;;;;;;-3.52;89.15;103367.75;6029526;23;20045;-71
2023/02/08 00:39:37;;;;;;;3.17;2.97;;;;;;;-3.46;87.72;103370.59;6056692;23;20540;-70
2023/02/08 00:42:03;;;;;;;4.35;3.97;;;;;;;-4.03;88.13;103281.47;6051554;23;20354;-70
2023/02/08 00:44:29;;;;;;;3.33;3.22;;;;;;;-3.51;87.91;103367.78;6029482;23;20027;-70
2023/02/08 00:46:56;;;;;;;2.83;2.70;;;;;;;-4.01;88.76;103292.69;6050182;23;20683;-70
2023/02/08 00:49:22;;;;;;;2.38;2.28;;;;;;;-3.65;89.37;103348.28;6031450;23;20074;-70
2023/02/08 00:51:49;;;;;;;6.18;2.75;;;;;;;-3.55;89.06;103373.59;6047771;23;20015;-70
2023/02/08 00:54:17;;;;;;;3.03;2.92;;;;;;;-3.83;88.29;103337.97;6053338;23;20085;-70
2023/02/08 00:56:44;;;;;;;4.93;3.17;;;;;;;-3.66;89.35;103370.50;6030561;23;20026;-70
2023/02/08 00:59:11;;;;;;;3.03;2.92;;;;;;;-4.29;89.39;103276.69;6055282;23;20032;-70
2023/02/08 01:01:38;;;;;;;2.47;2.38;;;;;;;-4.25;89.87;103291.41;6056346;23;20025;-70
2023/02/08 01:04:05;;;;;;;2.72;2.58;;;;;;;-3.93;90.33;103346.03;6041448;23;20019;-70
2023/02/08 01:06:32;;;;;;;2.65;2.50;;;;;;;-3.74;90.48;103386.31;6061181;23;20066;-70
2023/02/08 01:08:58;;;;;;;2.50;2.40;;;;;;;-3.73;91.73;103382.94;6067140;23;20351;-70
2023/02/08 01:11:25;;;;;;;3.20;2.97;;;;;;;-4.23;91.03;103300.97;6050919;23;20037;-70
2023/02/08 01:13:53;;;;;;;2.67;2.55;;;;;;;-4.15;91.60;103308.16;6059360;23;20022;-71
2023/02/08 01:16:22;;;;;;;3.03;2.83;;;;;;;-4.51;91.31;103269.59;6037124;23;20022;-69
2023/02/08 01:18:50;;;;;;;2.53;2.42;;;;;;;-3.76;92.03;103387.94;6057461;23;20024;-70
2023/02/08 01:21:20;;;;;;;2.63;2.45;;;;;;;-4.11;91.60;103317.75;6061859;23;20041;-70
2023/02/08 01:23:47;;;;;;;2.60;2.50;;;;;;;-4.38;91.39;103297.63;6057066;23;20457;-70
2023/02/08 01:26:15;;;;;;;2.60;2.50;;;;;;;-3.84;91.76;103383.28;6057585;23;20077;-70
2023/02/08 01:28:42;;;;;;;4.28;3.97;;;;;;;-3.84;92.40;103392.69;6042073;23;20045;-70
2023/02/08 01:31:12;;;;;;;2.85;2.70;;;;;;;-4.23;93.06;103323.16;6029122;23;20568;-70
2023/02/08 01:33:39;;;;;;;2.58;2.47;;;;;;;-3.85;92.93;103390.91;6060264;23;20030;-71
2023/02/08 01:36:06;;;;;;;2.55;2.45;;;;;;;-3.82;93.25;103389.38;6030645;23;20085;-70
2023/02/08 01:38:33;;;;;;;3.70;3.50;;;;;;;-4.95;92.82;103194.78;6058140;23;20132;-70
2023/02/08 01:41:00;;;;;;;2.53;2.42;;;;;;;-4.43;93.92;103275.97;6055402;23;20209;-71
2023/02/08 01:43:34;;;;;;;2.45;2.35;;;;;;;-3.79;93.95;103391.22;6044392;23;20241;-71
2023/02/08 01:46:00;;;;;;;7.50;3.25;;;;;;;-3.78;93.90;103400.69;6028797;23;20047;-71
2023/02/08 01:48:37;;;;;;;2.65;2.55;;;;;;;-4.41;92.31;103282.06;6028910;23;20036;-70
2023/02/08 01:51:09;;;;;;;2.20;2.10;;;;;;;-4.36;92.73;103295.16;6064433;23;20457;-70
2023/02/08 01:53:36;;;;;;;2.40;2.30;;;;;;;-3.72;92.20;103390.72;6008546;23;20035;-69
2023/02/08 01:56:08;;;;;;;3.28;2.97;;;;;;;-3.99;92.60;103354.28;6034299;23;20034;-70
2023/02/08 01:58:39;;;;;;;2.90;2.80;;;;;;;-3.80;92.17;103376.63;6056896;23;20030;-69
2023/02/08 02:01:07;;;;;;;3.35;3.15;;;;;;;-4.08;92.44;103329.06;6062031;23;20026;-70
2023/02/08 02:03:33;;;;;;;2.53;2.42;;;;;;;-3.90;91.77;103369.28;6037699;23;20029;-70
2023/02/08 02:06:05;;;;;;;2.00;1.90;;;;;;;-4.10;92.41;103338.38;6061102;23;20645;-70
2023/02/08 02:08:31;;;;;;;3.22;3.08;;;;;;;-3.98;93.36;103358.63;6038508;23;20250;-70
2023/02/08 02:10:58;;;;;;;3.03;2.80;;;;;;;-4.50;93.11;103300.44;6063024;23;20644;-70
2023/02/08 02:13:26;;;;;;;3.30;3.13;;;;;;;-4.02;94.22;103352.47;6003622;23;20172;-70
2023/02/08 02:15:53;;;;;;;2.25;2.15;;;;;;;-4.58;93.81;103286.34;6060393;23;20098;-70
2023/02/08 02:18:26;;;;;;;2.95;2.63;;;;;;;-4.42;93.78;103313.66;6062588;23;20034;-69
2023/02/08 02:21:10;;;;;;;2.90;2.70;;;;;;;-4.14;95.17;103359.53;6060907;23;20162;-69
2023/02/08 02:23:58;;;;;;;2.20;2.10;;;;;;;-4.20;95.38;103359.22;6062264;23;20203;-70
2023/02/08 02:26:34;;;;;;;2.17;2.08;;;;;;;-4.25;94.40;103363.22;6056646;23;20292;-71
2023/02/08 02:29:34;;;;;;;2.35;2.25;;;;;;;-4.32;95.98;103359.47;6044795;23;21047;-71
2023/02/08 02:32:16;;;;;;;2.45;2.35;;;;;;;-4.35;96.68;103363.53;6030374;23;20038;-70
2023/02/08 02:35:06;;;;;;;3.13;2.92;;;;;;;-4.95;96.83;103269.06;6057328;23;20267;-71
2023/02/08 02:37:48;;;;;;;2.60;2.40;;;;;;;-4.46;97.95;103363.84;6057449;23;20358;-70
2023/02/08 02:40:24;;;;;;;3.08;2.97;;;;;;;-4.52;97.60;103353.28;6006385;23;20027;-70
2023/02/08 02:46:02;;;;;;;2.60;2.50;;;;;;;-4.96;98.88;103287.75;6057722;23;20252;-72
2023/02/08 02:48:47;;;;;;;2.85;2.65;;;;;;;-4.56;99.45;103353.94;6053277;23;20061;-70
2023/02/08 02:51:24;;;;;;;2.88;2.55;;;;;;;-4.94;99.92;103290.41;6053292;23;20026;-69
2023/02/08 02:53:57;;;;;;;2.40;2.30;;;;;;;-4.65;100.00;103332.94;6049643;23;20041;-70
2023/02/08 02:56:29;;;;;;;4.13;2.60;;;;;;;-4.78;100.00;103323.72;6040231;23;20117;-70
2023/02/08 02:59:00;;;;;;;2.20;2.10;;;;;;;-4.40;100.00;103368.44;6057619;23;20022;-70
2023/02/08 03:01:28;;;;;;;3.45;3.25;;;;;;;-4.75;100.00;103302.50;6058386;23;20018;-70
2023/02/08 03:03:56;;;;;;;2.20;2.10;;;;;;;-4.42;100.00;103352.09;6028112;23;20018;-70
2023/02/08 03:06:54;;;;;;;2.38;2.28;;;;;;;-4.70;100.00;103309.63;6029286;23;20054;-70
2023/02/08 03:09:59;;;;;;;4.57;2.67;;;;;;;-4.26;100.00;103380.28;5999768;23;20027;-70
2023/02/08 03:12:56;;;;;;;3.88;3.42;;;;;;;-4.25;100.00;103373.47;6055032;23;20030;-70
2023/02/08 03:15:36;;;;;;;2.67;2.58;;;;;;;-4.25;100.00;103376.03;6025958;23;20027;-70
2023/02/08 03:18:27;;;;;;;3.97;3.72;;;;;;;-4.28;100.00;103378.44;6058418;23;20050;-70
2023/02/08 03:21:28;;;;;;;2.28;2.17;;;;;;;-4.31;100.00;103373.16;6027750;23;20019;-71
2023/02/08 03:24:13;;;;;;;3.50;3.20;;;;;;;-4.97;100.00;103260.41;6052142;23;20355;-70
2023/02/08 03:26:48;;;;;;;2.85;2.65;;;;;;;-4.36;100.00;103362.66;6039213;23;20018;-70
2023/02/08 03:29:29;;;;;;;2.72;2.63;;;;;;;-5.10;100.00;103251.19;6053650;23;20041;-70
2023/02/08 03:32:05;;;;;;;2.40;2.30;;;;;;;-5.65;100.00;103144.19;6029412;23;20033;-70
2023/02/08 03:34:44;;;;;;;3.15;2.95;;;;;;;-4.33;100.00;103364.50;6057112;23;20151;-71
2023/02/08 03:37:20;;;;;;;2.97;2.83;;;;;;;-4.30;100.00;103373.22;6053938;23;20137;-70
2023/02/08 03:39:51;;;;;;;2.95;2.67;;;;;;;-4.65;100.00;103315.91;6056971;23;20549;-69
2023/02/08 03:42:24;;;;;;;2.40;2.30;;;;;;;-5.28;100.00;103210.13;6028675;23;20048;-69
2023/02/08 03:44:57;;;;;;;3.72;3.10;;;;;;;-5.03;100.00;103244.72;6021443;23;20520;-71
2023/02/08 03:47:35;;;;;;;3.80;3.60;;;;;;;-4.31;100.00;103379.19;6056150;23;20049;-70
2023/02/08 03:50:06;;;;;;;2.40;2.30;;;;;;;-4.47;100.00;103357.00;6026504;23;20038;-71
2023/02/08 03:52:34;;;;;;;3.72;3.53;;;;;;;-4.52;100.00;103362.66;6057000;23;20050;-69
2023/02/08 03:55:06;;;;;;;2.42;2.33;;;;;;;-4.61;100.00;103332.28;6024921;23;20116;-69
2023/02/08 03:57:42;;;;;;;2.10;2.00;;;;;;;-4.36;100.00;103384.88;6052304;23;20026;-69
2023/02/08 04:00:13;;;;;;;3.42;3.10;;;;;;;-4.42;100.00;103382.84;6042744;23;20309;-69
2023/02/08 04:02:47;;;;;;;2.67;2.58;;;;;;;-5.64;100.00;103178.31;6057036;23;20018;-70
2023/02/08 04:05:14;;;;;;;2.90;2.80;;;;;;;-4.76;100.00;103334.94;6057214;23;20630;-70
2023/02/08 04:07:40;;;;;;;2.15;2.05;;;;;;;-4.83;100.00;103322.59;6054982;23;20030;-70
2023/02/08 04:10:07;;;;;;;2.20;2.10;;;;;;;-4.38;100.00;103383.91;6030650;23;20036;-70
2023/02/08 04:12:33;;;;;;;4.60;3.92;;;;;;;-4.48;100.00;103385.09;6027004;23;20347;-70
2023/02/08 04:15:00;;;;;;;2.88;2.67;;;;;;;-4.65;100.00;103332.94;6059180;23;20212;-71
2023/02/08 04:17:26;;;;;;;2.60;2.50;;;;;;;-4.36;100.00;103375.47;6048136;23;20029;-70
2023/02/08 04:19:52;;;;;;;2.58;2.47;;;;;;;-4.30;100.00;103377.50;6043796;23;20027;-69
2023/02/08 04:22:19;;;;;;;2.28;2.17;;;;;;;-3.96;100.00;103404.88;6051569;23;20033;-69
2023/02/08 04:24:45;;;;;;;2.50;2.30;;;;;;;-5.30;100.00;103159.66;6055932;23;20062;-70
2023/02/08 04:27:12;;;;;;;2.65;2.55;;;;;;;-4.43;100.00;103324.69;6024654;23;20424;-70
2023/02/08 04:29:40;;;;;;;2.30;2.15;;;;;;;-3.94;100.00;103405.84;6023069;23;20014;-70
2023/02/08 04:32:10;;;;;;;2.25;2.15;;;;;;;-4.52;100.00;103309.72;6031253;23;20033;-70
2023/02/08 04:34:37;;;;;;;2.55;2.45;;;;;;;-4.02;100.00;103397.75;6052646;23;20035;-69
2023/02/08 04:37:04;;;;;;;2.80;2.60;;;;;;;-4.08;100.00;103400.88;6039152;23;20109;-69
2023/02/08 04:39:30;;;;;;;2.55;2.45;;;;;;;-4.21;100.00;103381.41;6052554;23;20508;-69
2023/02/08 04:41:58;;;;;;;6.63;2.47;;;;;;;-4.20;100.00;103395.13;6037807;23;20534;-69
2023/02/08 04:44:26;;;;;;;2.38;2.28;;;;;;;-4.31;100.00;103383.41;6047884;23;20070;-68
2023/02/08 04:46:52;;;;;;;2.67;2.47;;;;;;;-4.68;100.00;103314.84;6031428;23;20010;-69
2023/02/08 04:49:19;;;;;;;2.10;2.00;;;;;;;-4.47;100.00;103354.44;6054751;23;20404;-69
2023/02/08 04:51:45;;;;;;;2.83;2.63;;;;;;;-5.02;100.00;103266.94;6032573;23;20496;-70
2023/02/08 04:54:12;;;;;;;3.05;2.85;;;;;;;-4.30;100.00;103382.63;6054829;23;20030;-69
2023/02/08 04:56:38;;;;;;;2.67;2.58;;;;;;;-4.67;100.00;103348.25;6061506;23;20117;-69
2023/02/08 04:59:05;;;;;;;2.63;2.53;;;;;;;-4.57;100.00;103343.59;6028950;23;20018;-69
2023/02/08 05:01:31;;;;;;;2.83;2.72;;;;;;;-4.59;100.00;103361.47;6003884;23;20402;-70
2023/02/08 05:03:58;;;;;;;2.17;2.08;;;;;;;-4.43;100.00;103379.41;6039659;23;20010;-69
2023/02/08 05:06:24;;;;;;;5.13;3.65;;;;;;;-4.44;100.00;103381.88;6028613;23;20050;-70
2023/02/08 05:08:51;;;;;;;1.90;1.90;;;;;;;-4.44;100.00;103385.31;6032831;23;20197;-70
2023/02/08 05:11:22;;;;;;;4.00;3.80;;;;;;;-4.43;100.00;103394.78;6053190;23;20037;-69
2023/02/08 05:13:49;;;;;;;2.40;2.30;;;;;;;-4.44;100.00;103390.44;6035376;23;20035;-70
2023/02/08 05:16:15;;;;;;;2.75;2.65;;;;;;;-4.79;100.00;103342.47;6057640;23;20038;-69
2023/02/08 05:18:42;;;;;;;2.53;2.42;;;;;;;-4.56;100.00;103382.13;6053732;23;20030;-69
2023/02/08 05:21:09;;;;;;;2.58;2.47;;;;;;;-5.13;100.00;103296.22;6030171;23;20058;-68
2023/02/08 05:23:36;;;;;;;2.47;2.38;;;;;;;-4.71;100.00;103373.59;6054032;23;20209;-67
2023/02/08 05:26:07;;;;;;;2.22;2.13;;;;;;;-4.80;100.00;103366.31;6056488;23;20482;-69
2023/02/08 05:28:34;;;;;;;4.40;2.75;;;;;;;-5.23;100.00;103294.84;6055260;23;20034;-69
2023/02/08 05:31:16;;;;;;;2.22;2.13;;;;;;;-5.34;100.00;103286.56;6039662;23;20030;-71
2023/02/08 05:33:42;;;;;;;2.90;2.80;;;;;;;-5.39;100.00;103280.34;6052597;23;20544;-69
2023/02/08 05:36:09;;;;;;;2.45;2.30;;;;;;;-4.93;100.00;103364.78;6012943;23;20100;-69
2023/02/08 05:38:35;;;;;;;2.58;2.45;;;;;;;-5.60;100.00;103249.31;6028127;23;20030;-70
2023/02/08 05:41:02;;;;;;;2.50;2.40;;;;;;;-5.33;100.00;103308.81;6059879;23;20701;-69
2023/02/08 05:43:28;;;;;;;3.67;3.42;;;;;;;-5.12;100.00;103339.81;6055259;23;20674;-69
2023/02/08 05:45:54;;;;;;;2.70;2.60;;;;;;;-5.09;100.00;103354.47;6056596;23;20011;-69
2023/02/08 05:48:21;;;;;;;2.78;2.60;;;;;;;-5.55;100.00;103270.94;6030098;23;20089;-70
2023/02/08 05:50:48;;;;;;;3.85;3.55;;;;;;;-5.02;100.00;103365.13;6033321;23;20255;-69
2023/02/08 05:53:14;;;;;;;2.80;2.70;;;;;;;-5.40;100.00;103296.47;6032881;23;20014;-69
2023/02/08 05:55:44;;;;;;;2.90;2.70;;;;;;;-4.93;100.00;103382.69;6029335;23;20461;-69
2023/02/08 05:58:11;;;;;;;3.17;3.05;;;;;;;-6.29;100.00;103161.13;6036041;23;20054;-70
2023/02/08 06:00:38;;;;;;;2.60;2.50;;;;;;;-4.92;100.00;103378.44;6027239;23;20100;-70
2023/02/08 06:03:05;;;;;;;2.65;2.45;;;;;;;-5.16;100.00;103340.44;6058075;23;20466;-70
2023/02/08 06:05:32;;;;;;;2.45;2.28;;;;;;;-4.90;100.00;103387.97;6062057;23;20138;-70
2023/02/08 06:07:59;;;;;;;2.40;2.30;;;;;;;-5.51;100.00;103277.06;6038431;23;20334;-69
2023/02/08 06:10:25;;;;;;;2.25;2.15;;;;;;;-4.87;100.00;103379.56;6054073;23;20025;-70
2023/02/08 06:12:51;;;;;;;3.03;2.92;;;;;;;-4.84;100.00;103385.75;6037457;23;20076;-69
2023/02/08 06:15:18;;;;;;;2.30;2.20;;;;;;;-5.43;100.00;103279.28;6004035;23;20027;-69
2023/02/08 06:17:44;;;;;;;1.90;1.85;;;;;;;-5.23;100.00;103305.09;6055554;23;20030;-69
2023/02/08 06:20:10;;;;;;;9.25;3.15;;;;;;;-5.28;100.00;103302.25;6024116;23;20034;-68
2023/02/08 06:22:37;;;;;;;2.40;2.30;;;;;;;-5.32;100.00;103308.00;6048815;23;20030;-69
2023/02/08 06:25:04;;;;;;;2.20;2.10;;;;;;;-4.85;100.00;103390.78;6059993;23;20049;-69
2023/02/08 06:27:30;;;;;;;3.60;2.70;;;;;;;-4.88;100.00;103394.06;6027693;23;20794;-69
2023/02/08 06:29:56;;;;;;;3.42;3.22;;;;;;;-5.03;100.00;103367.63;6049770;23;20077;-69
2023/02/08 06:32:24;;;;;;;2.45;2.33;;;;;;;-5.01;100.00;103386.53;6039031;23;20034;-70
2023/02/08 06:34:51;;;;;;;2.20;2.10;;;;;;;-4.97;100.00;103390.09;6055477;23;20053;-70
2023/02/08 06:37:18;;;;;;;2.20;2.10;;;;;;;-4.92;100.00;103396.38;6041611;23;20058;-69
2023/02/08 06:39:44;;;;;;;2.13;2.03;;;;;;;-4.97;100.00;103393.56;6057185;23;20029;-69
2023/02/08 06:42:11;;;;;;;2.40;2.30;;;;;;;-4.92;100.00;103406.63;6028655;23;20026;-69
2023/02/08 06:44:37;;;;;;;2.45;2.35;;;;;;;-4.94;100.00;103406.53;6056743;23;21012;-70
2023/02/08 06:47:16;;;;;;;2.35;2.25;;;;;;;-5.04;100.00;103383.78;6033553;23;20050;-69
2023/02/08 06:49:43;;;;;;;4.32;2.75;;;;;;;-5.01;100.00;103389.97;6055556;23;20017;-69
2023/02/08 06:52:09;;;;;;;2.25;2.15;;;;;;;-5.47;100.00;103322.50;6055443;23;20026;-69
2023/02/08 06:54:36;;;;;;;2.50;2.40;;;;;;;-4.97;100.00;103395.22;6051522;23;20054;-69
2023/02/08 06:57:03;;;;;;;2.17;2.08;;;;;;;-4.97;100.00;103395.22;6061376;23;20356;-70
2023/02/08 06:59:29;;;;;;;2.17;2.08;;;;;;;-4.99;100.00;103394.25;6004226;23;20094;-70
2023/02/08 07:01:56;;;;;;;2.20;2.10;;;;;;;-5.03;100.00;103389.00;6041002;23;20027;-69
2023/02/08 07:04:24;;;;;;;3.22;2.92;;;;;;;-5.59;100.00;103303.91;6031185;23;20019;-69
2023/02/08 07:06:50;;;;;;;3.13;2.78;;;;;;;-5.05;100.00;103405.03;6056384;23;20022;-70
2023/02/08 07:09:17;;;;;;;2.85;2.60;;;;;;;-5.39;100.00;103331.50;6056478;23;20018;-70
2023/02/08 07:11:43;;;;;;;2.55;2.45;;;;;;;-5.30;100.00;103344.81;6027568;23;20709;-69
2023/02/08 07:14:12;;;;;;;2.50;2.40;;;;;;;-5.06;100.00;103386.25;6057875;23;20066;-70
2023/02/08 07:16:39;;;;;;;3.20;3.00;;;;;;;-5.07;100.00;103394.75;6041097;23;20023;-70
2023/02/08 07:19:06;;;;;;;2.33;2.22;;;;;;;-5.43;100.00;103322.78;6030233;23;20512;-70
2023/02/08 07:21:32;;;;;;;2.25;2.15;;;;;;;-5.47;100.00;103325.97;6026304;23;20788;-70
2023/02/08 07:23:58;;;;;;;5.28;2.63;;;;;;;-5.37;100.00;103317.13;6024663;23;20034;-70
2023/02/08 07:26:25;;;;;;;2.72;2.63;;;;;;;-5.18;100.00;103333.50;6028097;23;20098;-70
2023/02/08 07:28:51;;;;;;;2.53;2.42;;;;;;;-5.01;100.00;103360.91;6029477;23;20667;-70
2023/02/08 07:31:18;;;;;;;3.72;3.42;;;;;;;-4.97;100.00;103361.94;6000181;23;20502;-70
2023/02/08 07:33:44;;;;;;;2.53;2.42;;;;;;;-5.09;100.00;103333.97;5999978;23;20078;-70
2023/02/08 07:36:10;;;;;;;2.47;2.38;;;;;;;-4.74;100.00;103392.25;6029349;23;20178;-70
2023/02/08 07:38:38;;;;;;;2.53;2.33;;;;;;;-6.10;100.00;103140.03;6006458;23;20678;-70
2023/02/08 07:41:08;;;;;;;3.47;3.33;;;;;;;-4.65;100.00;103377.38;6028855;23;20075;-70
2023/02/08 07:43:36;;;;;;;2.67;2.58;;;;;;;-4.71;100.00;103371.03;6004584;23;20023;-70
2023/02/08 07:46:11;;;;;;;2.72;2.60;;;;;;;-4.84;100.00;103324.28;6010875;23;20038;-70
2023/02/08 07:48:38;;;;;;;2.00;1.90;;;;;;;-5.05;100.00;103280.47;6027498;23;20177;-71
2023/02/08 07:51:06;;;;;;;2.47;2.38;;;;;;;-4.34;100.00;103384.13;6032938;23;20035;-71
2023/02/08 07:53:33;;;;;;;3.92;3.72;;;;;;;-4.68;100.00;103319.97;6010144;23;20223;-71
2023/02/08 07:56:00;;;;;;;2.70;2.50;;;;;;;-4.38;100.00;103374.53;6024999;23;20056;-71
2023/02/08 07:58:26;;;;;;;3.05;2.85;;;;;;;-4.24;100.00;103396.63;5996400;23;20031;-71
2023/02/08 08:00:53;;;;;;;2.53;2.33;;;;;;;-4.06;100.00;103394.13;6025355;23;20029;-72
2023/02/08 08:03:19;;;;;;;3.03;2.83;;;;;;;-4.50;100.00;103310.69;6027034;23;20034;-71
2023/02/08 08:05:46;;;;;;;3.13;2.92;;;;;;;-4.11;100.00;103364.81;6028312;23;20029;-71
2023/02/08 08:08:12;;;;;;;3.08;2.80;;;;;;;-4.03;100.00;103368.66;6027580;23;20026;-72
2023/02/08 08:10:39;;;;;;;2.83;2.72;;;;;;;-4.23;100.00;103328.28;6010325;23;20021;-70
2023/02/08 08:13:06;;;;;;;2.28;2.17;;;;;;;-4.10;100.00;103335.81;6040544;23;20297;-70
2023/02/08 08:15:33;;;;;;;2.88;2.75;;;;;;;-3.51;100.00;103420.81;6002042;23;20051;-71
2023/02/08 08:18:02;;;;;;;2.78;2.63;;;;;;;-4.01;100.00;103323.47;6031312;23;20026;-70
2023/02/08 08:20:28;;;;;;;3.08;2.97;;;;;;;-3.39;100.00;103416.28;6023275;23;20061;-70
2023/02/08 08:22:55;;;;;;;3.70;3.42;;;;;;;-3.72;100.00;103348.78;6053243;23;20030;-70
2023/02/08 08:25:21;;;;;;;3.95;2.30;;;;;;;-3.66;100.00;103362.81;6031084;23;20088;-70
2023/02/08 08:27:47;;;;;;;3.15;2.85;;;;;;;-3.54;100.00;103361.66;6056209;23;20018;-69
2023/02/08 08:30:15;;;;;;;3.10;3.00;;;;;;;-2.90;100.00;103458.91;6050588;23;20030;-71
2023/02/08 08:32:42;;;;;;;3.90;3.70;;;;;;;-2.87;100.00;103444.50;6026652;23;20116;-73
2023/02/08 08:35:09;;;;;;;3.92;3.72;;;;;;;-3.00;100.00;103421.63;6051279;23;20030;-70
2023/02/08 08:37:36;;;;;;;3.65;3.35;;;;;;;-2.50;100.00;103471.94;6054863;23;20027;-70
2023/02/08 08:40:06;;;;;;;2.58;2.47;;;;;;;-2.35;98.32;103445.19;6054389;23;20074;-70
2023/02/08 08:42:33;;;;;;;4.22;3.30;;;;;;;-2.64;96.94;103367.59;6053727;23;20022;-70
2023/02/08 08:45:00;;;;;;;2.65;2.55;;;;;;;-2.09;95.97;103433.47;6026473;23;20442;-71
2023/02/08 08:47:26;;;;;;;2.70;2.60;;;;;;;-2.00;94.48;103423.59;6026358;23;20026;-71
2023/02/08 08:49:53;;;;;;;2.75;2.65;;;;;;;-2.48;92.01;103341.75;6028296;23;20074;-71
2023/02/08 08:52:20;;;;;;;4.47;3.03;;;;;;;-2.44;90.64;103302.53;6031661;23;20106;-71
2023/02/08 08:54:46;;;;;;;4.47;4.07;;;;;;;-1.72;89.32;103391.34;6025270;23;20474;-70
2023/02/08 08:57:13;;;;;;;3.63;2.95;;;;;;;-1.72;86.93;103351.00;6023640;23;20102;-70
2023/02/08 08:59:39;;;;;;;2.80;2.70;;;;;;;-2.28;85.07;103213.16;6025181;23;20014;-70
2023/02/08 09:02:05;;;;;;;3.78;3.42;;;;;;;-1.36;84.23;103339.53;6058135;23;20086;-69
2023/02/08 09:04:32;;;;;;;5.90;3.17;;;;;;;-1.29;82.81;103319.25;6028864;23;20047;-69
2023/02/08 09:06:59;;;;;;;3.80;3.60;;;;;;;-1.64;82.09;103238.06;6059690;23;20045;-70
2023/02/08 09:09:25;;;;;;;6.68;4.22;;;;;;;-1.43;80.65;103225.09;6048154;23;20125;-72
2023/02/08 09:11:51;;;;;;;2.50;2.40;;;;;;;-0.83;79.38;103304.66;6053334;23;20046;-70
2023/02/08 09:14:18;;;;;;;2.97;2.75;;;;;;;-0.99;78.33;103274.84;6026428;23;20035;-72
2023/02/08 09:16:46;;;;;;;4.47;3.70;;;;;;;-1.14;78.50;103209.84;6053926;23;20117;-71
2023/02/08 09:19:15;;;;;;;4.20;3.92;;;;;;;-0.54;77.50;103281.63;6049857;23;20033;-70
2023/02/08 09:21:42;;;;;;;3.53;3.33;;;;;;;-0.74;77.18;103224.19;6050356;23;20125;-71
2023/02/08 09:24:08;;;;;;;3.28;3.17;;;;;;;-0.71;76.00;103204.53;6028696;23;20017;-71
2023/02/08 09:26:35;;;;;;;3.15;2.95;;;;;;;-0.57;74.16;103188.69;6054958;23;20447;-71
2023/02/08 09:29:01;;;;;;;2.60;2.50;;;;;;;0.11;72.12;103218.44;6030127;23;20027;-70
2023/02/08 09:31:35;;;;;;;3.15;2.95;;;;;;;0.22;71.13;103180.06;6024063;23;20099;-70
2023/02/08 09:34:03;;;;;;;3.53;3.22;;;;;;;0.31;69.95;103170.00;6054000;23;20524;-71
2023/02/08 09:36:36;;;;;;;2.75;2.55;;;;;;;0.25;69.20;103144.00;6059092;23;20717;-73
2023/02/08 09:39:19;;;;;;;4.30;3.67;;;;;;;0.14;68.96;103071.38;6035178;23;20018;-70
2023/02/08 09:41:48;;;;;;;3.05;2.92;;;;;;;0.63;68.24;103127.88;6029047;23;20710;-72
2023/02/08 09:44:31;;;;;;;2.65;2.45;;;;;;;0.73;67.44;103116.94;6055891;23;20038;-69
2023/02/08 09:47:05;;;;;;;2.95;2.85;;;;;;;0.67;66.84;103058.22;6031528;23;20033;-70
2023/02/08 09:49:37;;;;;;;3.28;3.13;;;;;;;0.53;65.51;102979.47;6058567;23;20053;-70
2023/02/08 09:52:15;;;;;;;2.78;2.67;;;;;;;0.92;64.05;102982.19;5949395;23;20034;-70
2023/02/08 09:54:50;;;;;;;7.88;3.75;;;;;;;1.04;62.46;102922.13;6025319;23;20027;-71
2023/02/08 09:57:21;;;;;;;2.78;2.67;;;;;;;0.63;61.50;102808.31;6060099;23;20102;-69
2023/02/08 09:59:59;;;;;;;3.50;3.30;;;;;;;1.48;59.53;102873.06;6033752;23;20527;-69
2023/02/08 10:02:35;;;;;;;3.00;2.90;;;;;;;1.78;57.61;102849.53;6057398;23;20028;-70
2023/02/08 10:05:04;;;;;;;3.05;2.88;;;;;;;1.99;56.79;102815.38;6029842;23;20038;-71
2023/02/08 10:07:33;;;;;;;3.38;3.17;;;;;;;2.10;54.63;102762.91;6059569;23;20037;-70
2023/02/08 10:10:04;;;;;;;3.20;3.05;;;;;;;2.22;54.82;102750.13;6052925;23;20582;-69
2023/02/08 10:12:36;;;;;;;3.92;3.72;;;;;;;2.34;54.14;102742.53;6040547;23;20022;-70
2023/02/08 10:15:14;;;;;;;3.20;3.03;;;;;;;1.76;54.58;102646.72;6058589;23;20026;-71
2023/02/08 10:17:59;;;;;;;5.00;4.60;;;;;;;2.52;53.16;102722.94;6042691;23;20063;-70
2023/02/08 10:20:58;;;;;;;3.45;3.25;;;;;;;2.43;52.50;102671.00;6058877;23;20045;-71
2023/02/08 10:23:46;;;;;;;3.28;3.10;;;;;;;2.16;52.83;102603.25;6005375;23;20078;-70
2023/02/08 10:26:15;;;;;;;3.80;3.60;;;;;;;2.91;52.03;102717.41;6050071;23;20026;-71
2023/02/08 10:29:10;;;;;;;3.80;3.50;;;;;;;3.07;52.22;102694.25;6035601;23;20605;-71
2023/02/08 10:31:46;;;;;;;4.05;3.60;;;;;;;3.12;51.55;102664.88;6054711;23;20698;-69
2023/02/08 10:34:30;;;;;;;3.90;3.70;;;;;;;2.56;49.92;102541.56;6056716;23;20021;-71
2023/02/08 10:37:13;;;;;;;4.15;3.85;;;;;;;3.18;49.00;102589.72;6031280;23;20034;-71
2023/02/08 10:39:41;;;;;;;4.28;3.97;;;;;;;3.02;49.76;102530.78;6060349;23;20764;-72
2023/02/08 10:42:21;;;;;;;3.22;3.13;;;;;;;3.30;48.99;102570.78;6061798;23;20026;-72
2023/02/08 10:45:05;;;;;;;5.68;5.38;;;;;;;3.26;48.71;102493.78;6046186;23;20025;-71
2023/02/08 10:47:55;;;;;;;4.95;4.50;;;;;;;3.54;45.76;102453.28;6057729;23;20033;-72
2023/02/08 10:50:34;;;;;;;7.80;4.35;;;;;;;3.68;45.90;102421.34;6031759;23;20054;-72
2023/02/08 10:53:14;;;;;;;7.55;3.90;;;;;;;3.63;45.58;102369.41;6050194;23;20432;-73
2023/02/08 10:55:47;;;;;;;4.00;3.80;;;;;;;3.54;44.61;102320.91;6053949;23;20695;-72
2023/02/08 10:58:20;;;;;;;3.67;3.47;;;;;;;3.78;44.18;102295.88;6030240;23;20464;-72
2023/02/08 11:00:47;;;;;;;;;;;;;;;4.07;43.21;102301.13;6030209;23;20201;-72
2023/02/08 11:03:20;;;;;;;4.45;4.15;;;;;;;4.10;42.89;102288.09;6001558;23;19991;-72
2023/02/08 11:05:54;;;;;;;5.78;3.50;;;;;;;4.17;43.88;102292.47;6052402;23;20174;-72
2023/02/08 11:08:26;;;;;;;3.70;3.50;;;;;;;3.94;43.97;102269.06;6038079;23;20858;-72
2023/02/08 11:11:02;;;;;;;3.30;3.20;;;;;;;4.39;44.49;102329.69;6027448;23;20869;-73
2023/02/08 11:13:42;;;;;;;3.13;2.92;;;;;;;4.48;43.55;102312.38;6051568;23;20030;-72
2023/02/08 11:16:22;;;;;;;3.53;3.33;;;;;;;4.13;43.88;102237.88;6006951;23;20041;-72
2023/02/08 11:18:56;;;;;;;4.82;4.43;;;;;;;4.18;43.42;102246.53;6028215;23;20022;-72
2023/02/08 11:21:33;;;;;;;3.63;3.42;;;;;;;4.54;42.77;102247.34;6054946;23;20030;-71
2023/02/08 11:24:20;;;;;;;4.40;4.10;;;;;;;4.77;43.67;102300.19;6042765;23;20066;-72
2023/02/08 11:26:47;;;;;;;3.80;3.58;;;;;;;4.92;42.34;102270.66;6053350;23;20038;-71
2023/02/08 11:29:28;;;;;;;3.90;3.70;;;;;;;4.60;42.44;102174.53;6027154;23;20027;-72
2023/02/08 11:32:13;;;;;;;4.43;4.20;;;;;;;5.10;41.24;102201.22;6062108;23;21563;-72
2023/02/08 11:34:43;;;;;;;5.38;5.03;;;;;;;5.26;42.83;102251.44;6054766;23;20050;-73
2023/02/08 11:37:22;;;;;;;4.55;4.25;;;;;;;5.33;41.48;102183.72;6026533;23;20041;-73
2023/02/08 11:39:53;;;;;;;3.83;3.63;;;;;;;5.31;41.65;102148.16;6057178;23;20071;-72